Terminal Aerodrome Forecast
Issued by NWS Knoxville/Tri Cities, TN

Home | Current Version | Previous Version | Text Only | Print | Product List | Glossary On
Versions: 1 2 3 4 5 6 7 8 9 10 11 12 13 14 15 16 17
000
FTUS44 KMRX 262334
TAFCHA
TAF
KCHA 262334Z 2700/2724 VRB05KT P6SM SCT100 SCT250
     FM270300 00000KT P6SM BKN250
     FM271200 VRB04KT P6SM SCT100 BKN250
     FM271600 17004KT P6SM VCSH BKN060
     FM272000 17007KT P6SM OVC050=

USA.gov is the U.S. government's official web portal to all federal, state and local government web resources and services.